Time;durP1;ratioP1;P1;durP2;ratioP2;P2;SDS_P1;SDS_P2;PMS_P1;PMS_P2;Temp;Humidity;BMP_temperature;BMP_pressure;BME280_temperature;BME280_humidity;BME280_pressure;Samples;Min_cycle;Max_cycle;Signal;HPM_P1;HPM_P2
2022/07/01 00:02:16;;;;;;;10.40;2.25;;;15.00;99.90;;;;;;4998810;28;20066;-66
2022/07/01 00:04:42;;;;;;;9.80;2.20;;;15.00;99.90;;;;;;5007518;28;20034;-66
2022/07/01 00:07:10;;;;;;;7.82;2.50;;;14.90;99.90;;;;;;5009036;28;20046;-66
2022/07/01 00:09:36;;;;;;;;;;;14.90;99.90;;;;;;5010551;28;20487;-67
2022/07/01 00:12:02;;;;;;;6.00;2.20;;;14.90;99.90;;;;;;5010838;28;19928;-66
2022/07/01 00:14:27;;;;;;;6.47;2.05;;;14.90;99.90;;;;;;4990821;28;20459;-67
2022/07/01 00:16:56;;;;;;;6.55;1.60;;;14.90;99.90;;;;;;5020787;28;20042;-67
2022/07/01 00:19:22;;;;;;;6.38;2.10;;;15.00;99.90;;;;;;5013181;28;20476;-65
2022/07/01 00:21:47;;;;;;;5.93;1.80;;;15.00;99.90;;;;;;5008860;28;20075;-67
2022/07/01 00:24:13;;;;;;;6.93;2.10;;;15.00;99.90;;;;;;5011215;28;20129;-66
2022/07/01 00:26:39;;;;;;;6.32;2.00;;;15.00;99.90;;;;;;5010472;28;20042;-67
2022/07/01 00:29:04;;;;;;;8.15;1.95;;;15.00;99.90;;;;;;5012451;28;20038;-66
2022/07/01 00:31:30;;;;;;;4.60;1.80;;;15.00;99.90;;;;;;5004231;28;20089;-66
2022/07/01 00:33:56;;;;;;;5.22;2.10;;;15.00;99.90;;;;;;5008071;28;20113;-66
2022/07/01 00:36:21;;;;;;;6.07;2.17;;;15.00;99.90;;;;;;5001773;28;20041;-67
2022/07/01 00:38:47;;;;;;;5.53;2.40;;;15.00;99.90;;;;;;5011414;28;20407;-66
2022/07/01 00:41:13;;;;;;;5.63;2.15;;;15.00;99.90;;;;;;5011330;28;20480;-67
2022/07/01 00:43:39;;;;;;;6.15;2.50;;;15.00;99.90;;;;;;5011420;28;20147;-67
2022/07/01 00:46:05;;;;;;;9.82;2.58;;;15.00;99.90;;;;;;5009069;28;20042;-66
2022/07/01 00:48:36;;;;;;;4.82;2.00;;;15.10;99.90;;;;;;5011461;28;20484;-66
2022/07/01 00:51:02;;;;;;;6.60;2.83;;;15.10;99.90;;;;;;5009397;28;20507;-67
2022/07/01 00:53:29;;;;;;;6.75;3.05;;;15.10;99.90;;;;;;5012085;28;20456;-67
2022/07/01 00:55:55;;;;;;;6.82;2.63;;;15.10;99.90;;;;;;5013284;28;20042;-66
2022/07/01 00:58:21;;;;;;;6.80;2.65;;;15.10;99.90;;;;;;5016400;28;20140;-66
2022/07/01 01:00:46;;;;;;;6.70;2.80;;;15.00;99.90;;;;;;5013781;28;20611;-66
2022/07/01 01:03:12;;;;;;;6.32;2.78;;;15.00;99.90;;;;;;5027315;28;20050;-66
2022/07/01 01:05:40;;;;;;;6.00;2.47;;;15.10;99.90;;;;;;5010995;28;20966;-66
2022/07/01 01:08:08;;;;;;;7.88;2.58;;;15.10;99.90;;;;;;5012348;28;20042;-67
2022/07/01 01:10:36;;;;;;;7.43;2.72;;;15.00;99.90;;;;;;5026166;28;20119;-65
2022/07/01 01:13:03;;;;;;;6.53;2.55;;;15.10;99.90;;;;;;5013919;28;20034;-66
2022/07/01 01:15:32;;;;;;;7.22;2.80;;;15.10;99.90;;;;;;5011003;28;20493;-66
2022/07/01 01:17:58;;;;;;;5.15;2.08;;;15.00;99.90;;;;;;5016213;28;20045;-66
2022/07/01 01:20:24;;;;;;;5.82;2.35;;;15.10;99.90;;;;;;5013970;28;20037;-67
2022/07/01 01:22:50;;;;;;;5.53;1.88;;;15.00;99.90;;;;;;5014383;28;20049;-66
2022/07/01 01:25:16;;;;;;;4.68;2.47;;;15.10;99.90;;;;;;5011013;28;20044;-66
2022/07/01 01:27:42;;;;;;;5.82;2.00;;;15.00;99.90;;;;;;5002924;28;20042;-66
2022/07/01 01:30:11;;;;;;;6.50;2.22;;;15.00;99.90;;;;;;5010731;28;20473;-66
2022/07/01 01:32:40;;;;;;;3.22;1.67;;;15.00;99.90;;;;;;5022976;28;20118;-67
2022/07/01 01:35:07;;;;;;;4.93;2.03;;;14.90;99.90;;;;;;5005612;28;20475;-68
2022/07/01 01:37:33;;;;;;;5.25;2.15;;;15.00;99.90;;;;;;5014275;28;20470;-65
2022/07/01 01:39:59;;;;;;;6.95;1.83;;;14.90;99.90;;;;;;5012010;28;20053;-67
2022/07/01 01:42:24;;;;;;;3.70;1.83;;;15.00;99.90;;;;;;5012269;28;20042;-67
2022/07/01 01:44:50;;;;;;;4.38;1.88;;;14.90;99.90;;;;;;4999776;28;20044;-67
2022/07/01 01:47:16;;;;;;;5.88;1.92;;;14.90;99.90;;;;;;5004023;28;20038;-67
2022/07/01 01:49:42;;;;;;;4.85;1.77;;;14.90;99.90;;;;;;5011190;28;20093;-66
2022/07/01 01:52:07;;;;;;;2.55;1.50;;;14.90;99.90;;;;;;5011681;28;20499;-66
2022/07/01 01:54:36;;;;;;;3.67;1.92;;;14.90;99.90;;;;;;5012800;28;20577;-67
2022/07/01 01:57:05;;;;;;;5.53;2.35;;;14.90;99.90;;;;;;5011948;28;20859;-66
2022/07/01 01:59:31;;;;;;;4.15;2.25;;;14.90;99.90;;;;;;5012832;28;20054;-66
2022/07/01 02:01:57;;;;;;;7.10;2.28;;;14.90;99.90;;;;;;5014049;28;20452;-65
2022/07/01 02:04:23;;;;;;;11.68;2.17;;;14.90;99.90;;;;;;5011127;28;20038;-67
2022/07/01 02:06:50;;;;;;;7.40;2.05;;;14.90;99.90;;;;;;5010167;28;20058;-66
2022/07/01 02:09:16;;;;;;;5.95;2.40;;;14.90;99.90;;;;;;4996595;28;20357;-65
2022/07/01 02:11:42;;;;;;;4.05;2.05;;;15.00;99.90;;;;;;5010894;28;20046;-66
2022/07/01 02:14:08;;;;;;;7.57;2.10;;;15.00;99.90;;;;;;5013722;28;20084;-67
2022/07/01 02:16:33;;;;;;;5.72;2.20;;;15.00;99.90;;;;;;5009221;28;20084;-66
2022/07/01 02:19:01;;;;;;;2.90;2.10;;;15.00;99.90;;;;;;5012412;28;20056;-66
2022/07/01 02:21:30;;;;;;;4.68;2.55;;;15.00;99.90;;;;;;5026717;28;20460;-67
2022/07/01 02:23:56;;;;;;;5.28;2.50;;;14.90;99.90;;;;;;5012540;28;20049;-67
2022/07/01 02:26:22;;;;;;;4.47;2.10;;;14.90;99.90;;;;;;5013176;28;20455;-67
2022/07/01 02:28:47;;;;;;;5.22;2.28;;;15.00;99.90;;;;;;5013209;28;20038;-66
2022/07/01 02:31:13;;;;;;;4.45;1.92;;;14.90;99.90;;;;;;5005658;28;20455;-67
2022/07/01 02:33:39;;;;;;;6.47;2.05;;;15.00;99.90;;;;;;4999503;28;20042;-66
2022/07/01 02:36:05;;;;;;;5.93;2.20;;;14.90;99.90;;;;;;5009298;28;20046;-67
2022/07/01 02:38:31;;;;;;;4.03;2.30;;;14.90;99.90;;;;;;5007488;28;20396;-65
2022/07/01 02:40:56;;;;;;;3.45;2.20;;;14.80;99.90;;;;;;5011010;28;20034;-66
2022/07/01 02:43:22;;;;;;;2.75;1.90;;;14.80;99.90;;;;;;5006198;28;20050;-67
2022/07/01 02:45:48;;;;;;;5.22;2.40;;;14.80;99.90;;;;;;5010244;28;20041;-67
2022/07/01 02:48:13;;;;;;;6.78;2.13;;;14.80;99.90;;;;;;5011113;28;20037;-66
2022/07/01 02:50:39;;;;;;;5.18;2.20;;;14.80;99.90;;;;;;5005115;28;20492;-65
2022/07/01 02:53:05;;;;;;;5.95;2.53;;;14.80;99.90;;;;;;5026081;28;20117;-65
2022/07/01 02:55:31;;;;;;;5.22;2.70;;;14.80;99.90;;;;;;5011512;28;20132;-66
2022/07/01 02:57:57;;;;;;;5.20;2.42;;;14.80;99.90;;;;;;5027362;28;20488;-66
2022/07/01 03:00:23;;;;;;;4.22;2.90;;;14.80;99.90;;;;;;5011027;28;20157;-66
2022/07/01 03:02:49;;;;;;;8.90;3.13;;;14.80;99.90;;;;;;5012399;28;20136;-66
2022/07/01 03:05:15;;;;;;;7.57;2.92;;;14.70;99.90;;;;;;5012446;28;20041;-66
2022/07/01 03:07:41;;;;;;;6.70;2.97;;;14.80;99.90;;;;;;5010490;28;20535;-66
2022/07/01 03:10:08;;;;;;;5.70;3.13;;;14.70;99.90;;;;;;5011278;28;20062;-65
2022/07/01 03:12:38;;;;;;;7.03;2.85;;;14.70;99.90;;;;;;5009915;28;20520;-66
2022/07/01 03:15:05;;;;;;;5.05;2.90;;;14.70;99.90;;;;;;5005080;28;20050;-66
2022/07/01 03:17:32;;;;;;;5.20;3.38;;;14.60;99.90;;;;;;5010018;28;20038;-66
2022/07/01 03:19:59;;;;;;;7.43;2.85;;;14.60;99.90;;;;;;5011103;28;20041;-65
2022/07/01 03:22:29;;;;;;;6.28;3.05;;;14.60;99.90;;;;;;5009545;28;20073;-65
2022/07/01 03:24:55;;;;;;;5.35;3.30;;;14.60;99.90;;;;;;5011781;28;20064;-66
2022/07/01 03:27:22;;;;;;;10.90;3.80;;;14.60;99.90;;;;;;5010026;28;20407;-66
2022/07/01 03:29:48;;;;;;;7.57;3.30;;;14.60;99.90;;;;;;5009867;28;20112;-67
2022/07/01 03:32:14;;;;;;;6.07;3.80;;;14.60;99.90;;;;;;5011222;28;20088;-66
2022/07/01 03:34:41;;;;;;;5.43;3.13;;;14.60;99.90;;;;;;5013260;28;20140;-66
2022/07/01 03:37:09;;;;;;;5.80;3.22;;;14.50;99.90;;;;;;5009575;28;20038;-66
2022/07/01 03:39:36;;;;;;;6.75;3.40;;;14.60;99.90;;;;;;5008363;28;20041;-67
2022/07/01 03:42:03;;;;;;;4.90;3.20;;;14.60;99.90;;;;;;5011362;28;20073;-65
2022/07/01 03:44:29;;;;;;;4.40;3.15;;;14.60;99.90;;;;;;5010655;28;20096;-67
2022/07/01 03:46:55;;;;;;;7.88;3.28;;;14.50;99.90;;;;;;5001145;28;20039;-66
2022/07/01 03:49:21;;;;;;;7.28;3.97;;;14.60;99.90;;;;;;5007059;28;20144;-66
2022/07/01 03:51:46;;;;;;;6.22;3.80;;;14.60;99.90;;;;;;5010122;28;20041;-66
2022/07/01 03:54:32;;;;;;;6.65;3.50;;;14.50;99.90;;;;;;5010193;28;20046;-67
2022/07/01 03:57:03;;;;;;;8.82;3.47;;;14.60;99.90;;;;;;5011750;28;20100;-66
2022/07/01 03:59:33;;;;;;;7.53;3.65;;;14.60;99.90;;;;;;5009255;28;20048;-65
2022/07/01 04:02:00;;;;;;;8.50;3.50;;;14.50;99.90;;;;;;5013058;28;20045;-66
2022/07/01 04:04:26;;;;;;;7.72;3.72;;;14.60;99.90;;;;;;5011470;28;20046;-66
2022/07/01 04:06:57;;;;;;;8.13;3.50;;;14.60;99.90;;;;;;5010115;28;20045;-65
2022/07/01 04:09:24;;;;;;;5.93;3.47;;;14.60;99.90;;;;;;5009924;28;20123;-66
2022/07/01 04:11:50;;;;;;;5.05;3.63;;;14.60;99.90;;;;;;5011593;28;20033;-67
2022/07/01 04:14:17;;;;;;;7.82;3.85;;;14.70;99.90;;;;;;5010805;28;20468;-69
2022/07/01 04:16:46;;;;;;;10.00;4.85;;;14.70;99.90;;;;;;5007738;28;20050;-65
2022/07/01 04:19:14;;;;;;;6.97;3.67;;;14.70;99.90;;;;;;5004318;28;20042;-64
2022/07/01 04:24:24;;;;;;;7.32;3.85;;;14.70;99.90;;;;;;5010941;28;20060;-66
2022/07/01 04:26:50;;;;;;;9.18;4.32;;;14.70;99.90;;;;;;5006671;28;20136;-65
2022/07/01 04:29:17;;;;;;;11.88;4.28;;;14.70;99.90;;;;;;5008663;28;20050;-65
2022/07/01 04:31:43;;;;;;;7.82;4.13;;;14.70;99.90;;;;;;5026782;28;20044;-66
2022/07/01 04:34:10;;;;;;;5.38;4.00;;;14.70;99.90;;;;;;5018068;28;20121;-66
2022/07/01 04:36:36;;;;;;;5.50;4.43;;;14.70;99.90;;;;;;5012412;28;20046;-65
2022/07/01 04:39:04;;;;;;;7.38;3.80;;;14.80;99.90;;;;;;5010239;28;20117;-65
2022/07/01 04:44:15;;;;;;;10.18;4.22;;;14.80;99.90;;;;;;5010880;28;20081;-66
2022/07/01 04:46:41;;;;;;;8.95;4.95;;;14.80;99.90;;;;;;5010031;28;20042;-65
2022/07/01 04:49:07;;;;;;;7.90;4.40;;;14.80;99.90;;;;;;5008783;28;20042;-67
2022/07/01 04:51:34;;;;;;;7.38;4.57;;;14.80;99.90;;;;;;5008801;28;20084;-67
2022/07/01 04:54:05;;;;;;;5.95;4.43;;;14.80;99.90;;;;;;5007881;28;20057;-67
2022/07/01 04:56:35;;;;;;;6.22;4.82;;;14.80;99.90;;;;;;5007659;28;20496;-65
2022/07/01 04:59:01;;;;;;;7.78;5.88;;;14.80;99.90;;;;;;5008121;28;20044;-66
2022/07/01 05:01:30;;;;;;;7.07;4.88;;;14.80;99.90;;;;;;5008028;28;20053;-66
2022/07/01 05:03:57;;;;;;;10.20;5.78;;;14.80;99.90;;;;;;4997720;28;20037;-65
2022/07/01 05:06:23;;;;;;;10.23;5.45;;;14.80;99.90;;;;;;5005737;28;20085;-67
2022/07/01 05:08:49;;;;;;;12.75;5.38;;;14.80;99.90;;;;;;5008100;28;20058;-66
2022/07/01 05:11:15;;;;;;;9.73;6.35;;;14.80;99.90;;;;;;4999443;28;20088;-67
2022/07/01 05:13:41;;;;;;;16.90;6.55;;;14.80;99.90;;;;;;5010259;28;20527;-66
2022/07/01 05:16:08;;;;;;;12.43;6.95;;;14.80;99.90;;;;;;5010439;28;20407;-66
2022/07/01 05:24:07;;;;;;;14.13;9.45;;;14.80;99.90;;;;;;5011001;28;20050;-66
2022/07/01 05:26:33;;;;;;;18.33;10.18;;;14.80;99.90;;;;;;5024465;28;20428;-67
2022/07/01 05:28:59;;;;;;;16.85;10.20;;;14.80;99.90;;;;;;5008045;28;20254;-67
2022/07/01 05:31:24;;;;;;;16.77;10.38;;;14.80;99.90;;;;;;5008156;28;20408;-65
2022/07/01 05:33:50;;;;;;;16.75;9.30;;;14.80;99.90;;;;;;5018812;28;20046;-67
2022/07/01 05:36:16;;;;;;;18.30;10.13;;;14.80;99.90;;;;;;5005823;28;20030;-66
2022/07/01 05:38:42;;;;;;;21.35;11.25;;;14.90;99.90;;;;;;5005022;28;20066;-66
2022/07/01 05:41:08;;;;;;;23.85;11.55;;;15.00;99.90;;;;;;5013267;28;20045;-67
2022/07/01 05:43:34;;;;;;;16.67;11.55;;;15.00;99.90;;;;;;5010882;28;20037;-67
2022/07/01 05:46:00;;;;;;;18.08;13.60;;;15.00;99.90;;;;;;5010983;28;20407;-66
2022/07/01 05:48:26;;;;;;;25.27;15.38;;;15.10;99.90;;;;;;5006757;28;20046;-65
2022/07/01 05:50:53;;;;;;;28.73;15.70;;;15.10;99.90;;;;;;5014534;28;20452;-67
2022/07/01 05:53:19;;;;;;;24.80;15.40;;;15.10;99.90;;;;;;5011812;28;20041;-65
2022/07/01 05:55:45;;;;;;;25.10;15.55;;;15.10;99.90;;;;;;5010509;28;20104;-66
2022/07/01 05:58:11;;;;;;;25.17;16.45;;;15.20;99.90;;;;;;5013997;28;20049;-66
2022/07/01 06:00:41;;;;;;;25.50;16.98;;;15.20;99.90;;;;;;5011951;28;20061;-66
2022/07/01 06:03:07;;;;;;;21.55;15.05;;;15.20;99.90;;;;;;4996483;28;20384;-66
2022/07/01 06:05:33;;;;;;;30.55;17.08;;;15.30;99.90;;;;;;5011890;28;21964;-66
2022/07/01 06:07:59;;;;;;;27.65;16.83;;;15.30;99.90;;;;;;5011590;28;20037;-66
2022/07/01 06:10:24;;;;;;;23.08;16.42;;;15.40;99.90;;;;;;5004246;28;20038;-67
2022/07/01 06:12:50;;;;;;;28.00;16.38;;;15.50;99.90;;;;;;5009289;28;20333;-66
2022/07/01 06:15:16;;;;;;;22.42;15.60;;;15.50;99.90;;;;;;5013643;28;20547;-66
2022/07/01 06:17:42;;;;;;;22.38;15.68;;;15.60;99.90;;;;;;5014488;28;20499;-65
2022/07/01 06:20:09;;;;;;;24.63;16.00;;;15.60;99.90;;;;;;5006108;28;20045;-66
2022/07/01 06:22:35;;;;;;;26.02;17.17;;;15.70;99.90;;;;;;5027275;28;20557;-67
2022/07/01 06:25:02;;;;;;;27.90;16.80;;;15.70;99.90;;;;;;5013245;28;20041;-65
2022/07/01 06:27:28;;;;;;;23.92;16.65;;;15.80;99.90;;;;;;5013532;28;20408;-66
2022/07/01 06:29:54;;;;;;;22.70;15.15;;;15.80;99.90;;;;;;5010694;28;20042;-66
2022/07/01 06:32:20;;;;;;;24.38;15.43;;;15.80;99.90;;;;;;5013002;28;20113;-67
2022/07/01 06:34:46;;;;;;;27.42;16.38;;;15.90;99.90;;;;;;5014099;28;20120;-66
2022/07/01 06:37:12;;;;;;;23.38;14.77;;;15.90;99.90;;;;;;5013317;28;20192;-66
2022/07/01 06:39:38;;;;;;;23.58;14.95;;;15.90;99.90;;;;;;5013856;28;20038;-66
2022/07/01 06:42:04;;;;;;;26.10;16.80;;;15.90;99.90;;;;;;5014553;28;20297;-66
2022/07/01 06:44:30;;;;;;;29.17;17.33;;;16.00;99.90;;;;;;5009805;28;20045;-66
2022/07/01 06:46:55;;;;;;;28.35;15.73;;;16.00;99.90;;;;;;5005792;28;20129;-65
2022/07/01 06:49:24;;;;;;;21.65;14.57;;;16.10;99.90;;;;;;5013572;28;20084;-65
2022/07/01 06:51:52;;;;;;;30.52;16.98;;;16.20;99.90;;;;;;5013309;28;20049;-66
2022/07/01 06:54:18;;;;;;;;;;;16.20;99.90;;;;;;5004523;28;20046;-66
2022/07/01 06:56:44;;;;;;;22.85;16.25;;;16.30;99.90;;;;;;5010185;28;19922;-65
2022/07/01 06:59:10;;;;;;;26.00;16.55;;;16.30;99.90;;;;;;5014090;28;20388;-65
2022/07/01 07:01:35;;;;;;;24.80;16.63;;;16.30;99.90;;;;;;5014977;28;20042;-66
2022/07/01 07:04:10;;;;;;;20.50;15.80;;;16.20;99.90;;;;;;5024014;28;20045;-66
2022/07/01 07:06:36;;;;;;;26.45;17.13;;;16.30;99.90;;;;;;5008549;28;20465;-65
2022/07/01 07:09:01;;;;;;;28.77;17.10;;;16.30;99.90;;;;;;5008507;28;20077;-66
2022/07/01 07:11:27;;;;;;;20.60;17.58;;;16.30;99.90;;;;;;5012404;28;20042;-67
2022/07/01 07:13:53;;;;;;;30.25;17.35;;;16.40;99.90;;;;;;5010469;28;20401;-67
2022/07/01 07:16:20;;;;;;;26.85;16.73;;;16.40;99.90;;;;;;5004936;28;20161;-66
2022/07/01 07:18:47;;;;;;;26.98;16.60;;;16.40;99.90;;;;;;5011374;28;20046;-68
2022/07/01 07:21:13;;;;;;;26.20;17.48;;;16.40;99.90;;;;;;5011042;28;20377;-67
2022/07/01 07:23:39;;;;;;;25.88;16.92;;;16.40;99.90;;;;;;5005670;28;20075;-66
2022/07/01 07:26:04;;;;;;;20.50;16.10;;;16.40;99.90;;;;;;5010941;28;20472;-68
2022/07/01 07:28:30;;;;;;;22.15;15.88;;;16.40;99.90;;;;;;5010634;28;20042;-65
2022/07/01 07:30:56;;;;;;;20.08;15.75;;;16.40;99.90;;;;;;5012427;28;20088;-66
2022/07/01 07:33:22;;;;;;;21.02;16.23;;;16.40;99.90;;;;;;5010892;28;20053;-67
2022/07/01 07:35:50;;;;;;;23.98;17.48;;;16.40;99.90;;;;;;5011570;28;20029;-68
2022/07/01 07:38:16;;;;;;;23.25;17.75;;;16.50;99.90;;;;;;5012647;28;20030;-67
2022/07/01 07:40:42;;;;;;;22.50;18.17;;;16.60;99.90;;;;;;5010725;28;20446;-67
2022/07/01 07:43:08;;;;;;;24.77;16.77;;;16.60;99.90;;;;;;5010823;28;20042;-67
2022/07/01 07:45:34;;;;;;;22.33;17.55;;;16.60;99.90;;;;;;5002353;28;20038;-66
2022/07/01 07:48:06;;;;;;;22.45;17.00;;;16.70;99.90;;;;;;5023109;28;20065;-67
2022/07/01 07:50:32;;;;;;;21.80;17.67;;;16.70;99.90;;;;;;5009549;28;20439;-66
2022/07/01 07:52:58;;;;;;;22.83;16.20;;;16.70;99.90;;;;;;5009835;28;20049;-67
2022/07/01 07:55:24;;;;;;;21.30;16.67;;;16.70;99.90;;;;;;5010376;28;20049;-67
2022/07/01 07:57:50;;;;;;;28.15;17.42;;;16.70;99.90;;;;;;5011721;28;20503;-68
2022/07/01 08:00:18;;;;;;;25.65;15.52;;;16.70;99.90;;;;;;5011839;28;20053;-66
2022/07/01 08:02:44;;;;;;;20.40;15.20;;;16.80;99.90;;;;;;5011928;28;20038;-67
2022/07/01 08:05:10;;;;;;;19.55;13.75;;;16.90;99.90;;;;;;5009649;28;20562;-66
2022/07/01 08:07:40;;;;;;;19.60;14.32;;;16.90;99.90;;;;;;5010483;28;20093;-66
2022/07/01 08:10:08;;;;;;;21.63;15.10;;;16.90;99.90;;;;;;5009281;28;20042;-67
2022/07/01 08:12:34;;;;;;;20.77;14.63;;;17.00;99.90;;;;;;5010309;28;20045;-65
2022/07/01 08:15:00;;;;;;;20.40;15.18;;;17.10;99.90;;;;;;5010419;28;20414;-67
2022/07/01 08:17:26;;;;;;;20.20;14.75;;;17.20;99.90;;;;;;5009576;28;20053;-66
2022/07/01 08:19:52;;;;;;;21.10;13.95;;;17.30;99.90;;;;;;5011005;28;20492;-67
2022/07/01 08:22:19;;;;;;;18.52;13.38;;;17.30;99.90;;;;;;5006701;28;20048;-69
2022/07/01 08:24:44;;;;;;;21.88;12.98;;;17.30;99.90;;;;;;5007838;28;20049;-67
2022/07/01 08:27:11;;;;;;;17.25;13.43;;;17.40;99.90;;;;;;5009940;28;20041;-66
2022/07/01 08:29:37;;;;;;;19.75;12.80;;;17.50;99.90;;;;;;5011321;28;20377;-67
2022/07/01 08:32:05;;;;;;;16.02;12.25;;;17.60;99.90;;;;;;5010563;28;20132;-67
2022/07/01 08:34:31;;;;;;;16.77;12.27;;;17.70;99.90;;;;;;5011111;28;20042;-67
2022/07/01 08:36:57;;;;;;;18.70;10.90;;;17.80;99.90;;;;;;5012218;28;20084;-67
2022/07/01 08:39:23;;;;;;;16.08;10.95;;;18.00;99.90;;;;;;5011889;28;20141;-67
2022/07/01 08:41:48;;;;;;;17.20;10.40;;;18.10;99.90;;;;;;5007198;28;20046;-67
2022/07/01 08:44:14;;;;;;;13.18;9.07;;;18.20;99.90;;;;;;5010991;28;20127;-67
2022/07/01 08:46:40;;;;;;;14.25;8.70;;;18.20;99.90;;;;;;5013326;28;20030;-66
2022/07/01 08:49:06;;;;;;;13.23;9.32;;;18.30;99.90;;;;;;5004950;28;20118;-66
2022/07/01 08:51:32;;;;;;;11.10;7.07;;;18.40;99.90;;;;;;4999640;28;20043;-66
2022/07/01 08:53:58;;;;;;;17.83;7.93;;;18.40;99.90;;;;;;4996263;28;20049;-67
2022/07/01 08:56:42;;;;;;;14.90;8.23;;;18.30;99.90;;;;;;5008121;28;20480;-68
2022/07/01 08:59:12;;;;;;;8.02;5.82;;;18.30;99.90;;;;;;5006276;28;20034;-67
2022/07/01 09:01:39;;;;;;;14.43;6.28;;;18.50;99.90;;;;;;5010902;28;20524;-66
2022/07/01 09:04:15;;;;;;;9.95;6.18;;;18.60;99.90;;;;;;5000519;28;20396;-67
2022/07/01 09:06:41;;;;;;;16.25;6.28;;;18.70;99.90;;;;;;5005958;28;20112;-66
2022/07/01 09:09:25;;;;;;;9.02;5.43;;;18.90;99.90;;;;;;5011421;28;20046;-67
2022/07/01 09:11:55;;;;;;;10.32;5.15;;;19.20;99.90;;;;;;5011223;28;20447;-67
2022/07/01 09:14:29;;;;;;;11.73;5.78;;;19.50;99.90;;;;;;5014188;28;20046;-66
2022/07/01 09:16:58;;;;;;;8.32;5.10;;;19.80;99.90;;;;;;5029245;28;20112;-67
2022/07/01 09:19:24;;;;;;;13.27;5.22;;;20.00;99.90;;;;;;5029213;28;20100;-67
2022/07/01 09:21:56;;;;;;;11.27;4.70;;;20.00;99.90;;;;;;5031424;28;20049;-67
2022/07/01 09:24:40;;;;;;;10.85;4.50;;;20.10;99.90;;;;;;4996880;28;20467;-68
2022/07/01 09:27:13;;;;;;;9.82;4.82;;;20.10;99.90;;;;;;5022448;28;20057;-67
2022/07/01 09:29:45;;;;;;;9.52;5.18;;;20.00;99.90;;;;;;5014952;28;20038;-67
2022/07/01 09:32:13;;;;;;;11.57;5.35;;;20.00;99.90;;;;;;5013744;28;20076;-67
2022/07/01 09:34:39;;;;;;;;;;;20.10;99.90;;;;;;5003623;28;20497;-65
2022/07/01 09:37:05;;;;;;;8.73;4.13;;;20.10;99.90;;;;;;5013761;28;20438;-66
2022/07/01 09:39:42;;;;;;;8.77;5.85;;;20.10;99.90;;;;;;5012360;28;20041;-66
2022/07/01 09:42:08;;;;;;;10.68;5.50;;;20.00;99.90;;;;;;5010042;28;20495;-67
2022/07/01 09:44:33;;;;;;;9.55;5.00;;;20.10;99.90;;;;;;5015031;28;20639;-66
2022/07/01 09:47:01;;;;;;;7.07;4.47;;;20.20;99.90;;;;;;5011905;28;20084;-67
2022/07/01 09:49:27;;;;;;;;;;;20.30;99.90;;;;;;5014647;28;20045;-67
2022/07/01 09:51:53;;;;;;;9.68;4.70;;;20.40;99.90;;;;;;5010327;28;19928;-68
2022/07/01 09:54:19;;;;;;;10.77;5.03;;;20.40;99.90;;;;;;5013573;28;20046;-66
2022/07/01 09:56:45;;;;;;;9.18;4.25;;;20.30;99.90;;;;;;5012518;28;20077;-67
2022/07/01 09:59:11;;;;;;;9.55;3.58;;;20.30;99.90;;;;;;5012233;28;20076;-66
2022/07/01 10:01:38;;;;;;;6.63;3.33;;;20.30;99.90;;;;;;5009837;28;20050;-66
2022/07/01 10:04:07;;;;;;;7.47;3.33;;;20.30;99.90;;;;;;5014820;28;20046;-66
2022/07/01 10:06:57;;;;;;;11.35;3.00;;;20.30;99.90;;;;;;5012359;28;20301;-67
2022/07/01 10:09:38;;;;;;;7.13;2.40;;;20.40;99.90;;;;;;5013855;28;20049;-67
2022/07/01 10:12:32;;;;;;;8.55;2.70;;;20.60;99.90;;;;;;5014062;28;20441;-66
2022/07/01 10:15:01;;;;;;;8.45;3.50;;;20.80;99.90;;;;;;5008646;28;20080;-67
2022/07/01 10:17:29;;;;;;;9.18;4.20;;;20.80;99.90;;;;;;4987084;28;20053;-68
2022/07/01 10:19:56;;;;;;;6.43;3.13;;;20.70;99.90;;;;;;5006951;28;20042;-65
2022/07/01 10:22:29;;;;;;;6.97;3.65;;;20.80;99.90;;;;;;5004545;28;20045;-67
2022/07/01 10:24:56;;;;;;;9.02;2.92;;;20.90;99.90;;;;;;5006907;28;20041;-69
2022/07/01 10:27:24;;;;;;;7.15;3.00;;;21.20;99.90;;;;;;5009197;28;20084;-68
2022/07/01 10:30:09;;;;;;;9.95;3.17;;;21.50;99.90;;;;;;5007749;28;20054;-67
2022/07/01 10:32:49;;;;;;;11.55;3.25;;;21.60;99.90;;;;;;5010647;28;20056;-67
2022/07/01 10:35:15;;;;;;;9.80;3.05;;;21.80;99.90;;;;;;5006591;28;20034;-66
2022/07/01 10:37:57;;;;;;;6.40;2.78;;;22.00;99.90;;;;;;5013540;28;20073;-67
2022/07/01 10:40:41;;;;;;;9.63;2.80;;;22.30;99.90;;;;;;5007321;28;20404;-67
2022/07/01 10:43:07;;;;;;;5.75;2.60;;;22.60;99.90;;;;;;4995238;28;20117;-67
2022/07/01 10:45:46;;;;;;;7.30;2.95;;;22.80;99.90;;;;;;5012464;28;20046;-67
2022/07/01 10:48:23;;;;;;;11.15;3.05;;;22.90;99.90;;;;;;5011861;28;20038;-66
2022/07/01 10:50:51;;;;;;;7.15;2.80;;;22.50;99.90;;;;;;5011537;28;20184;-67
2022/07/01 10:53:17;;;;;;;6.70;2.97;;;22.30;99.90;;;;;;5005732;28;20096;-67
2022/07/01 10:55:49;;;;;;;8.50;3.25;;;22.20;99.90;;;;;;5011550;28;20042;-66
2022/07/01 10:58:18;;;;;;;6.32;3.40;;;22.30;99.90;;;;;;5010138;28;20052;-66
2022/07/01 11:00:46;;;;;;;6.65;2.80;;;22.10;99.90;;;;;;5010180;28;20049;-66
2022/07/01 11:03:13;;;;;;;5.88;3.20;;;22.30;99.90;;;;;;5005857;28;20042;-67
2022/07/01 11:05:40;;;;;;;8.07;3.08;;;22.40;99.90;;;;;;5006182;28;20042;-68
2022/07/01 11:08:07;;;;;;;10.00;2.88;;;22.60;99.90;;;;;;4998370;28;20050;-66
2022/07/01 11:10:33;;;;;;;6.93;3.35;;;22.40;99.90;;;;;;5004571;28;20486;-67
2022/07/01 11:13:00;;;;;;;7.65;2.90;;;22.10;99.90;;;;;;5011143;28;20595;-67
2022/07/01 11:15:29;;;;;;;5.28;2.47;;;21.70;99.90;;;;;;5010524;28;20045;-67
2022/07/01 11:17:56;;;;;;;7.55;2.30;;;21.30;99.90;;;;;;5007324;28;20100;-66
2022/07/01 11:20:27;;;;;;;6.10;1.98;;;20.80;99.90;;;;;;5009157;28;20161;-67
2022/07/01 11:22:52;;;;;;;8.95;2.40;;;20.40;99.90;;;;;;5012646;28;20042;-67
2022/07/01 11:25:20;;;;;;;5.97;2.17;;;20.20;99.90;;;;;;5012215;28;20042;-67
2022/07/01 11:27:47;;;;;;;6.20;1.50;;;19.90;99.90;;;;;;5006042;28;20121;-68
2022/07/01 11:30:14;;;;;;;5.90;1.70;;;19.90;99.90;;;;;;5005544;28;20092;-66
2022/07/01 11:32:45;;;;;;;7.50;1.98;;;20.00;99.90;;;;;;5008051;28;20037;-67
2022/07/01 11:41:17;;;;;;;3.47;1.40;;;19.50;99.90;;;;;;5027433;28;20189;-66
2022/07/01 11:43:43;;;;;;;6.07;1.48;;;19.40;99.90;;;;;;5011027;28;20582;-66
2022/07/01 11:46:09;;;;;;;3.28;1.23;;;19.40;99.90;;;;;;5011812;28;20121;-66
2022/07/01 11:48:39;;;;;;;4.70;1.77;;;19.50;99.90;;;;;;5026830;28;20051;-66
2022/07/01 11:51:13;;;;;;;3.72;1.35;;;19.70;99.90;;;;;;5033090;28;20049;-67
2022/07/01 11:53:50;;;;;;;5.53;1.35;;;20.10;99.90;;;;;;5031666;28;20045;-66
2022/07/01 11:56:38;;;;;;;5.88;1.63;;;20.50;99.90;;;;;;5018097;28;20053;-66
2022/07/01 11:59:04;;;;;;;3.30;1.50;;;20.60;99.90;;;;;;5012139;28;20054;-66
2022/07/01 12:01:31;;;;;;;4.95;1.35;;;20.50;99.90;;;;;;5012672;28;20050;-68
2022/07/01 12:04:00;;;;;;;4.65;1.55;;;20.40;99.90;;;;;;5012457;28;20467;-67
2022/07/01 12:06:27;;;;;;;4.70;1.55;;;20.30;99.90;;;;;;5007732;28;20412;-68
2022/07/01 12:08:54;;;;;;;8.75;1.95;;;20.20;99.90;;;;;;5005877;28;20405;-66
2022/07/01 12:11:23;;;;;;;3.40;1.38;;;20.20;99.90;;;;;;5005374;28;20062;-66
2022/07/01 12:13:50;;;;;;;4.10;1.60;;;20.30;99.90;;;;;;5010866;28;20066;-67
2022/07/01 12:16:18;;;;;;;3.88;1.60;;;20.50;99.90;;;;;;5009359;28;20431;-66
2022/07/01 12:19:00;;;;;;;6.80;2.53;;;20.80;99.90;;;;;;5012419;28;20466;-66
2022/07/01 12:21:27;;;;;;;9.07;1.98;;;21.20;99.90;;;;;;5025912;28;20044;-66
2022/07/01 12:24:04;;;;;;;7.50;1.90;;;21.50;99.90;;;;;;4994860;28;20489;-66
2022/07/01 12:26:31;;;;;;;7.50;2.03;;;21.70;99.90;;;;;;5005887;28;20050;-66
2022/07/01 12:28:57;;;;;;;7.00;1.77;;;21.80;99.90;;;;;;5007361;28;20037;-66
2022/07/01 12:31:24;;;;;;;5.28;1.90;;;21.70;99.90;;;;;;4995618;28;20517;-66
2022/07/01 12:33:52;;;;;;;6.68;1.75;;;21.70;99.90;;;;;;4993002;28;20065;-67
2022/07/01 12:36:19;;;;;;;4.43;1.30;;;21.70;99.90;;;;;;5022197;28;20045;-68
2022/07/01 12:38:45;;;;;;;9.23;1.50;;;21.70;99.90;;;;;;5011336;28;20416;-67
2022/07/01 12:41:36;;;;;;;5.95;1.70;;;21.70;99.90;;;;;;5010363;28;20041;-67
2022/07/01 12:44:25;;;;;;;6.05;1.80;;;21.50;99.90;;;;;;5011201;28;20050;-66
2022/07/01 12:46:51;;;;;;;8.85;1.52;;;21.60;99.90;;;;;;5006983;28;20113;-64
2022/07/01 12:49:25;;;;;;;6.47;1.75;;;21.60;99.90;;;;;;5013425;28;20499;-67
2022/07/01 12:51:52;;;;;;;3.10;1.50;;;21.60;99.90;;;;;;5016347;28;20053;-68
2022/07/01 12:54:34;;;;;;;7.10;2.10;;;21.50;99.90;;;;;;5026656;28;20038;-66
2022/07/01 12:57:01;;;;;;;8.77;2.25;;;21.30;99.90;;;;;;5009901;28;20062;-67
2022/07/01 12:59:27;;;;;;;6.20;1.67;;;21.10;99.90;;;;;;5031061;28;20380;-66
2022/07/01 13:01:54;;;;;;;3.45;1.40;;;21.40;99.90;;;;;;5009194;28;20418;-67